sensor_id;sensor_type;location;lat;lon;timestamp;P1;durP1;ratioP1;P2;durP2;ratioP2
30617;SDS011;17384;51.214;9.202;2023-04-15T00:00:07;23.17;;;12.90;;
30617;SDS011;17384;51.214;9.202;2023-04-15T00:02:34;21.73;;;13.23;;
30617;SDS011;17384;51.214;9.202;2023-04-15T00:05:00;20.27;;;12.38;;
30617;SDS011;17384;51.214;9.202;2023-04-15T00:07:25;20.48;;;13.68;;
30617;SDS011;17384;51.214;9.202;2023-04-15T00:09:50;20.23;;;13.43;;
30617;SDS011;17384;51.214;9.202;2023-04-15T00:12:19;18.27;;;11.70;;
30617;SDS011;17384;51.214;9.202;2023-04-15T00:14:45;18.40;;;11.98;;
30617;SDS011;17384;51.214;9.202;2023-04-15T00:17:11;22.10;;;12.10;;
30617;SDS011;17384;51.214;9.202;2023-04-15T00:19:37;19.33;;;12.02;;
30617;SDS011;17384;51.214;9.202;2023-04-15T00:22:02;17.48;;;10.98;;
30617;SDS011;17384;51.214;9.202;2023-04-15T00:24:28;22.98;;;12.35;;
30617;SDS011;17384;51.214;9.202;2023-04-15T00:26:55;18.85;;;12.18;;
30617;SDS011;17384;51.214;9.202;2023-04-15T00:29:20;22.15;;;13.00;;
30617;SDS011;17384;51.214;9.202;2023-04-15T00:31:46;24.13;;;14.55;;
30617;SDS011;17384;51.214;9.202;2023-04-15T00:34:12;24.70;;;14.07;;
30617;SDS011;17384;51.214;9.202;2023-04-15T00:36:37;20.00;;;13.20;;
30617;SDS011;17384;51.214;9.202;2023-04-15T00:39:03;20.52;;;12.82;;
30617;SDS011;17384;51.214;9.202;2023-04-15T00:41:29;19.90;;;12.23;;
30617;SDS011;17384;51.214;9.202;2023-04-15T00:43:55;17.10;;;11.95;;
30617;SDS011;17384;51.214;9.202;2023-04-15T00:46:21;21.50;;;11.80;;
30617;SDS011;17384;51.214;9.202;2023-04-15T00:48:47;19.15;;;11.95;;
30617;SDS011;17384;51.214;9.202;2023-04-15T00:51:13;19.48;;;11.73;;
30617;SDS011;17384;51.214;9.202;2023-04-15T00:53:39;17.10;;;11.70;;
30617;SDS011;17384;51.214;9.202;2023-04-15T00:56:05;15.57;;;10.80;;
30617;SDS011;17384;51.214;9.202;2023-04-15T00:58:31;16.55;;;11.50;;
30617;SDS011;17384;51.214;9.202;2023-04-15T01:00:56;19.42;;;12.10;;
30617;SDS011;17384;51.214;9.202;2023-04-15T01:03:23;19.17;;;11.75;;
30617;SDS011;17384;51.214;9.202;2023-04-15T01:05:49;17.58;;;12.35;;
30617;SDS011;17384;51.214;9.202;2023-04-15T01:08:22;20.67;;;11.90;;
30617;SDS011;17384;51.214;9.202;2023-04-15T01:10:48;24.77;;;12.05;;
30617;SDS011;17384;51.214;9.202;2023-04-15T01:13:13;20.20;;;12.15;;
30617;SDS011;17384;51.214;9.202;2023-04-15T01:15:39;20.02;;;11.73;;
30617;SDS011;17384;51.214;9.202;2023-04-15T01:18:04;18.45;;;12.13;;
30617;SDS011;17384;51.214;9.202;2023-04-15T01:20:31;18.23;;;12.25;;
30617;SDS011;17384;51.214;9.202;2023-04-15T01:22:58;17.60;;;12.00;;
30617;SDS011;17384;51.214;9.202;2023-04-15T01:25:33;25.20;;;12.73;;
30617;SDS011;17384;51.214;9.202;2023-04-15T01:27:59;20.92;;;12.63;;
30617;SDS011;17384;51.214;9.202;2023-04-15T01:30:25;18.30;;;11.85;;
30617;SDS011;17384;51.214;9.202;2023-04-15T01:32:53;20.58;;;12.70;;
30617;SDS011;17384;51.214;9.202;2023-04-15T01:35:20;18.50;;;11.52;;
30617;SDS011;17384;51.214;9.202;2023-04-15T01:37:45;19.13;;;11.63;;
30617;SDS011;17384;51.214;9.202;2023-04-15T01:40:11;18.20;;;11.68;;
30617;SDS011;17384;51.214;9.202;2023-04-15T01:42:38;18.63;;;12.20;;
30617;SDS011;17384;51.214;9.202;2023-04-15T01:45:03;17.65;;;11.13;;
30617;SDS011;17384;51.214;9.202;2023-04-15T01:47:29;20.08;;;11.60;;
30617;SDS011;17384;51.214;9.202;2023-04-15T01:49:55;21.85;;;14.00;;
30617;SDS011;17384;51.214;9.202;2023-04-15T01:52:20;21.10;;;12.93;;
30617;SDS011;17384;51.214;9.202;2023-04-15T01:54:46;19.95;;;12.55;;
30617;SDS011;17384;51.214;9.202;2023-04-15T01:57:11;21.83;;;12.68;;
30617;SDS011;17384;51.214;9.202;2023-04-15T01:59:37;21.00;;;12.45;;
30617;SDS011;17384;51.214;9.202;2023-04-15T02:02:03;23.65;;;12.23;;
30617;SDS011;17384;51.214;9.202;2023-04-15T02:04:29;16.60;;;11.02;;
30617;SDS011;17384;51.214;9.202;2023-04-15T02:06:55;17.45;;;11.05;;
30617;SDS011;17384;51.214;9.202;2023-04-15T02:09:20;23.48;;;12.80;;
30617;SDS011;17384;51.214;9.202;2023-04-15T02:11:46;19.95;;;11.57;;
30617;SDS011;17384;51.214;9.202;2023-04-15T02:14:11;19.30;;;12.55;;
30617;SDS011;17384;51.214;9.202;2023-04-15T02:16:37;25.55;;;12.75;;
30617;SDS011;17384;51.214;9.202;2023-04-15T02:19:02;23.90;;;13.77;;
30617;SDS011;17384;51.214;9.202;2023-04-15T02:21:28;21.15;;;13.55;;
30617;SDS011;17384;51.214;9.202;2023-04-15T02:23:54;20.77;;;13.90;;
30617;SDS011;17384;51.214;9.202;2023-04-15T02:26:20;19.88;;;12.98;;
30617;SDS011;17384;51.214;9.202;2023-04-15T02:28:46;19.98;;;12.80;;
30617;SDS011;17384;51.214;9.202;2023-04-15T02:31:12;20.60;;;12.95;;
30617;SDS011;17384;51.214;9.202;2023-04-15T02:33:38;22.58;;;13.77;;
30617;SDS011;17384;51.214;9.202;2023-04-15T02:36:03;25.80;;;12.85;;
30617;SDS011;17384;51.214;9.202;2023-04-15T02:38:29;25.58;;;14.52;;
30617;SDS011;17384;51.214;9.202;2023-04-15T02:40:56;29.90;;;16.80;;
30617;SDS011;17384;51.214;9.202;2023-04-15T02:43:21;26.13;;;16.13;;
30617;SDS011;17384;51.214;9.202;2023-04-15T02:45:47;25.33;;;14.32;;
30617;SDS011;17384;51.214;9.202;2023-04-15T02:48:14;25.02;;;14.80;;
30617;SDS011;17384;51.214;9.202;2023-04-15T02:50:41;28.17;;;15.75;;
30617;SDS011;17384;51.214;9.202;2023-04-15T02:53:07;27.52;;;16.35;;
30617;SDS011;17384;51.214;9.202;2023-04-15T02:55:32;24.60;;;15.15;;
30617;SDS011;17384;51.214;9.202;2023-04-15T02:57:58;27.90;;;15.02;;
30617;SDS011;17384;51.214;9.202;2023-04-15T03:00:24;27.65;;;15.68;;
30617;SDS011;17384;51.214;9.202;2023-04-15T03:02:51;27.30;;;15.75;;
30617;SDS011;17384;51.214;9.202;2023-04-15T03:05:21;29.15;;;17.13;;
30617;SDS011;17384;51.214;9.202;2023-04-15T03:07:50;32.97;;;17.45;;
30617;SDS011;17384;51.214;9.202;2023-04-15T03:10:16;30.75;;;16.58;;
30617;SDS011;17384;51.214;9.202;2023-04-15T03:12:41;27.27;;;17.15;;
30617;SDS011;17384;51.214;9.202;2023-04-15T03:15:07;30.42;;;16.95;;
30617;SDS011;17384;51.214;9.202;2023-04-15T03:17:33;27.58;;;16.00;;
30617;SDS011;17384;51.214;9.202;2023-04-15T03:20:00;36.53;;;17.05;;
30617;SDS011;17384;51.214;9.202;2023-04-15T03:22:33;25.45;;;15.95;;
30617;SDS011;17384;51.214;9.202;2023-04-15T03:24:59;30.90;;;16.42;;
30617;SDS011;17384;51.214;9.202;2023-04-15T03:27:24;30.38;;;17.17;;
30617;SDS011;17384;51.214;9.202;2023-04-15T03:29:50;29.13;;;17.95;;
30617;SDS011;17384;51.214;9.202;2023-04-15T03:32:16;29.83;;;17.20;;
30617;SDS011;17384;51.214;9.202;2023-04-15T03:34:41;33.75;;;17.13;;
30617;SDS011;17384;51.214;9.202;2023-04-15T03:37:07;34.65;;;17.60;;
30617;SDS011;17384;51.214;9.202;2023-04-15T03:39:33;33.00;;;17.95;;
30617;SDS011;17384;51.214;9.202;2023-04-15T03:41:58;31.08;;;17.40;;
30617;SDS011;17384;51.214;9.202;2023-04-15T03:44:27;29.58;;;17.10;;
30617;SDS011;17384;51.214;9.202;2023-04-15T03:46:52;34.03;;;16.60;;
30617;SDS011;17384;51.214;9.202;2023-04-15T03:49:18;30.92;;;17.40;;
30617;SDS011;17384;51.214;9.202;2023-04-15T03:51:44;30.40;;;16.98;;
30617;SDS011;17384;51.214;9.202;2023-04-15T03:54:10;28.98;;;16.15;;
30617;SDS011;17384;51.214;9.202;2023-04-15T03:56:36;31.08;;;18.23;;
30617;SDS011;17384;51.214;9.202;2023-04-15T03:59:02;35.65;;;17.73;;
30617;SDS011;17384;51.214;9.202;2023-04-15T04:01:27;35.80;;;18.15;;
30617;SDS011;17384;51.214;9.202;2023-04-15T04:03:53;29.65;;;17.13;;
30617;SDS011;17384;51.214;9.202;2023-04-15T04:06:19;33.65;;;18.15;;
30617;SDS011;17384;51.214;9.202;2023-04-15T04:08:44;35.35;;;19.10;;
30617;SDS011;17384;51.214;9.202;2023-04-15T04:11:10;30.90;;;18.15;;
30617;SDS011;17384;51.214;9.202;2023-04-15T04:13:35;30.42;;;17.63;;
30617;SDS011;17384;51.214;9.202;2023-04-15T04:16:01;30.60;;;18.27;;
30617;SDS011;17384;51.214;9.202;2023-04-15T04:18:28;32.25;;;18.48;;
30617;SDS011;17384;51.214;9.202;2023-04-15T04:20:55;33.53;;;18.02;;
30617;SDS011;17384;51.214;9.202;2023-04-15T04:23:20;37.40;;;19.33;;
30617;SDS011;17384;51.214;9.202;2023-04-15T04:25:46;40.53;;;20.40;;
30617;SDS011;17384;51.214;9.202;2023-04-15T04:28:11;34.22;;;18.35;;
30617;SDS011;17384;51.214;9.202;2023-04-15T04:30:37;36.10;;;18.98;;
30617;SDS011;17384;51.214;9.202;2023-04-15T04:33:02;32.53;;;18.67;;
30617;SDS011;17384;51.214;9.202;2023-04-15T04:35:28;32.63;;;18.00;;
30617;SDS011;17384;51.214;9.202;2023-04-15T04:37:53;36.05;;;19.00;;
30617;SDS011;17384;51.214;9.202;2023-04-15T04:40:19;30.77;;;17.92;;
30617;SDS011;17384;51.214;9.202;2023-04-15T04:42:44;33.08;;;19.60;;
30617;SDS011;17384;51.214;9.202;2023-04-15T04:45:10;44.83;;;21.25;;
30617;SDS011;17384;51.214;9.202;2023-04-15T04:47:35;35.42;;;19.08;;
30617;SDS011;17384;51.214;9.202;2023-04-15T04:50:01;40.72;;;20.77;;
30617;SDS011;17384;51.214;9.202;2023-04-15T04:52:27;35.45;;;20.25;;
30617;SDS011;17384;51.214;9.202;2023-04-15T04:54:53;36.75;;;20.35;;
30617;SDS011;17384;51.214;9.202;2023-04-15T04:57:18;35.60;;;20.55;;
30617;SDS011;17384;51.214;9.202;2023-04-15T04:59:43;35.15;;;19.85;;
30617;SDS011;17384;51.214;9.202;2023-04-15T05:02:09;33.63;;;19.15;;
30617;SDS011;17384;51.214;9.202;2023-04-15T05:04:34;37.80;;;19.67;;
30617;SDS011;17384;51.214;9.202;2023-04-15T05:07:01;32.88;;;18.98;;
30617;SDS011;17384;51.214;9.202;2023-04-15T05:09:26;35.40;;;19.80;;
30617;SDS011;17384;51.214;9.202;2023-04-15T05:11:52;34.83;;;20.38;;
30617;SDS011;17384;51.214;9.202;2023-04-15T05:14:17;37.88;;;20.70;;
30617;SDS011;17384;51.214;9.202;2023-04-15T05:16:43;36.08;;;20.67;;
30617;SDS011;17384;51.214;9.202;2023-04-15T05:19:08;40.63;;;21.15;;
30617;SDS011;17384;51.214;9.202;2023-04-15T05:21:34;36.97;;;21.10;;
30617;SDS011;17384;51.214;9.202;2023-04-15T05:23:59;49.80;;;19.65;;
30617;SDS011;17384;51.214;9.202;2023-04-15T05:26:25;36.22;;;18.73;;
30617;SDS011;17384;51.214;9.202;2023-04-15T05:28:51;33.22;;;19.15;;
30617;SDS011;17384;51.214;9.202;2023-04-15T05:31:17;35.80;;;19.45;;
30617;SDS011;17384;51.214;9.202;2023-04-15T05:33:42;34.50;;;18.83;;
30617;SDS011;17384;51.214;9.202;2023-04-15T05:36:08;38.25;;;20.30;;
30617;SDS011;17384;51.214;9.202;2023-04-15T05:38:33;33.15;;;19.48;;
30617;SDS011;17384;51.214;9.202;2023-04-15T05:40:59;35.85;;;21.27;;
30617;SDS011;17384;51.214;9.202;2023-04-15T05:43:25;36.92;;;20.67;;
30617;SDS011;17384;51.214;9.202;2023-04-15T05:45:50;33.80;;;20.25;;
30617;SDS011;17384;51.214;9.202;2023-04-15T05:48:16;34.45;;;20.52;;
30617;SDS011;17384;51.214;9.202;2023-04-15T05:50:41;38.40;;;21.33;;
30617;SDS011;17384;51.214;9.202;2023-04-15T05:53:07;35.28;;;19.77;;
30617;SDS011;17384;51.214;9.202;2023-04-15T05:55:33;32.28;;;19.10;;
30617;SDS011;17384;51.214;9.202;2023-04-15T05:57:59;31.40;;;18.27;;
30617;SDS011;17384;51.214;9.202;2023-04-15T06:00:24;28.90;;;17.60;;
30617;SDS011;17384;51.214;9.202;2023-04-15T06:02:50;28.10;;;15.77;;
30617;SDS011;17384;51.214;9.202;2023-04-15T06:05:15;38.53;;;18.35;;
30617;SDS011;17384;51.214;9.202;2023-04-15T06:07:41;30.65;;;16.08;;
30617;SDS011;17384;51.214;9.202;2023-04-15T06:10:08;30.08;;;16.38;;
30617;SDS011;17384;51.214;9.202;2023-04-15T06:12:33;27.85;;;16.10;;
30617;SDS011;17384;51.214;9.202;2023-04-15T06:14:59;30.77;;;18.27;;
30617;SDS011;17384;51.214;9.202;2023-04-15T06:17:24;33.58;;;18.00;;
30617;SDS011;17384;51.214;9.202;2023-04-15T06:19:53;29.63;;;18.35;;
30617;SDS011;17384;51.214;9.202;2023-04-15T06:22:22;29.27;;;17.58;;
30617;SDS011;17384;51.214;9.202;2023-04-15T06:24:48;26.58;;;16.50;;
30617;SDS011;17384;51.214;9.202;2023-04-15T06:27:15;29.60;;;17.63;;
30617;SDS011;17384;51.214;9.202;2023-04-15T06:29:41;35.55;;;21.33;;
30617;SDS011;17384;51.214;9.202;2023-04-15T06:32:07;32.70;;;18.92;;
30617;SDS011;17384;51.214;9.202;2023-04-15T06:34:32;33.42;;;20.20;;
30617;SDS011;17384;51.214;9.202;2023-04-15T06:36:58;30.15;;;18.08;;
30617;SDS011;17384;51.214;9.202;2023-04-15T06:39:23;33.00;;;19.45;;
30617;SDS011;17384;51.214;9.202;2023-04-15T06:41:49;35.90;;;21.70;;
30617;SDS011;17384;51.214;9.202;2023-04-15T06:44:14;32.92;;;19.25;;
30617;SDS011;17384;51.214;9.202;2023-04-15T06:46:40;30.55;;;18.88;;
30617;SDS011;17384;51.214;9.202;2023-04-15T06:49:05;33.72;;;18.00;;
30617;SDS011;17384;51.214;9.202;2023-04-15T06:51:33;31.27;;;19.25;;
30617;SDS011;17384;51.214;9.202;2023-04-15T06:53:59;32.60;;;19.10;;
30617;SDS011;17384;51.214;9.202;2023-04-15T06:56:24;29.10;;;17.42;;
30617;SDS011;17384;51.214;9.202;2023-04-15T06:58:50;32.15;;;18.23;;
30617;SDS011;17384;51.214;9.202;2023-04-15T07:01:15;32.90;;;18.88;;
30617;SDS011;17384;51.214;9.202;2023-04-15T07:03:41;35.17;;;20.00;;
30617;SDS011;17384;51.214;9.202;2023-04-15T07:06:06;34.17;;;20.13;;
30617;SDS011;17384;51.214;9.202;2023-04-15T07:08:33;40.22;;;20.92;;
30617;SDS011;17384;51.214;9.202;2023-04-15T07:10:59;34.95;;;20.02;;
30617;SDS011;17384;51.214;9.202;2023-04-15T07:13:25;40.65;;;21.10;;
30617;SDS011;17384;51.214;9.202;2023-04-15T07:15:51;38.67;;;21.58;;
30617;SDS011;17384;51.214;9.202;2023-04-15T07:18:16;38.63;;;20.92;;
30617;SDS011;17384;51.214;9.202;2023-04-15T07:20:42;41.35;;;22.20;;
30617;SDS011;17384;51.214;9.202;2023-04-15T07:23:07;39.67;;;22.20;;
30617;SDS011;17384;51.214;9.202;2023-04-15T07:25:33;41.22;;;21.55;;
30617;SDS011;17384;51.214;9.202;2023-04-15T07:27:58;36.75;;;21.67;;
30617;SDS011;17384;51.214;9.202;2023-04-15T07:30:24;40.28;;;20.83;;
30617;SDS011;17384;51.214;9.202;2023-04-15T07:32:49;35.08;;;19.88;;
30617;SDS011;17384;51.214;9.202;2023-04-15T07:35:18;42.22;;;21.90;;
30617;SDS011;17384;51.214;9.202;2023-04-15T07:37:45;38.88;;;21.90;;
30617;SDS011;17384;51.214;9.202;2023-04-15T07:40:11;38.55;;;20.88;;
30617;SDS011;17384;51.214;9.202;2023-04-15T07:42:38;37.25;;;20.20;;
30617;SDS011;17384;51.214;9.202;2023-04-15T07:45:04;34.38;;;19.25;;
30617;SDS011;17384;51.214;9.202;2023-04-15T07:47:31;36.83;;;20.27;;
30617;SDS011;17384;51.214;9.202;2023-04-15T07:49:57;33.38;;;19.88;;
30617;SDS011;17384;51.214;9.202;2023-04-15T07:52:24;38.22;;;19.45;;
30617;SDS011;17384;51.214;9.202;2023-04-15T07:54:49;33.28;;;18.92;;
30617;SDS011;17384;51.214;9.202;2023-04-15T07:57:15;32.63;;;19.13;;
30617;SDS011;17384;51.214;9.202;2023-04-15T07:59:41;30.73;;;17.85;;
30617;SDS011;17384;51.214;9.202;2023-04-15T08:02:07;31.25;;;17.65;;
30617;SDS011;17384;51.214;9.202;2023-04-15T08:04:32;31.98;;;17.58;;
30617;SDS011;17384;51.214;9.202;2023-04-15T08:06:58;32.95;;;17.42;;
30617;SDS011;17384;51.214;9.202;2023-04-15T08:09:23;31.38;;;17.58;;
30617;SDS011;17384;51.214;9.202;2023-04-15T08:11:49;31.38;;;18.83;;
30617;SDS011;17384;51.214;9.202;2023-04-15T08:14:15;29.13;;;16.95;;
30617;SDS011;17384;51.214;9.202;2023-04-15T08:16:41;31.17;;;18.23;;
30617;SDS011;17384;51.214;9.202;2023-04-15T08:19:06;30.25;;;17.88;;
30617;SDS011;17384;51.214;9.202;2023-04-15T08:21:32;34.17;;;18.75;;
30617;SDS011;17384;51.214;9.202;2023-04-15T08:24:00;33.05;;;17.90;;
30617;SDS011;17384;51.214;9.202;2023-04-15T08:26:26;32.83;;;20.08;;
30617;SDS011;17384;51.214;9.202;2023-04-15T08:28:51;33.20;;;18.20;;
30617;SDS011;17384;51.214;9.202;2023-04-15T08:31:17;34.63;;;19.10;;
30617;SDS011;17384;51.214;9.202;2023-04-15T08:33:43;31.00;;;17.42;;
30617;SDS011;17384;51.214;9.202;2023-04-15T08:36:09;33.60;;;18.15;;
30617;SDS011;17384;51.214;9.202;2023-04-15T08:38:35;30.92;;;18.33;;
30617;SDS011;17384;51.214;9.202;2023-04-15T08:41:44;29.92;;;17.25;;
30617;SDS011;17384;51.214;9.202;2023-04-15T08:43:52;29.38;;;16.20;;
30617;SDS011;17384;51.214;9.202;2023-04-15T08:46:22;26.65;;;15.73;;
30617;SDS011;17384;51.214;9.202;2023-04-15T08:48:48;23.88;;;14.50;;
30617;SDS011;17384;51.214;9.202;2023-04-15T08:51:15;33.83;;;18.92;;
30617;SDS011;17384;51.214;9.202;2023-04-15T08:53:44;27.83;;;15.82;;
30617;SDS011;17384;51.214;9.202;2023-04-15T08:56:11;24.33;;;14.50;;
30617;SDS011;17384;51.214;9.202;2023-04-15T08:58:39;26.48;;;15.05;;
30617;SDS011;17384;51.214;9.202;2023-04-15T09:01:06;21.83;;;13.32;;
30617;SDS011;17384;51.214;9.202;2023-04-15T09:03:32;22.27;;;13.13;;
30617;SDS011;17384;51.214;9.202;2023-04-15T09:05:58;24.98;;;15.68;;
30617;SDS011;17384;51.214;9.202;2023-04-15T09:08:24;23.83;;;14.55;;
30617;SDS011;17384;51.214;9.202;2023-04-15T09:10:50;26.92;;;13.85;;
30617;SDS011;17384;51.214;9.202;2023-04-15T09:13:15;27.13;;;15.48;;
30617;SDS011;17384;51.214;9.202;2023-04-15T09:15:40;22.83;;;13.82;;
30617;SDS011;17384;51.214;9.202;2023-04-15T09:18:06;19.35;;;11.88;;
30617;SDS011;17384;51.214;9.202;2023-04-15T09:20:41;21.90;;;13.38;;
30617;SDS011;17384;51.214;9.202;2023-04-15T09:25:34;18.42;;;11.00;;
30617;SDS011;17384;51.214;9.202;2023-04-15T09:28:00;21.67;;;12.55;;
30617;SDS011;17384;51.214;9.202;2023-04-15T09:30:27;18.15;;;11.63;;
30617;SDS011;17384;51.214;9.202;2023-04-15T09:32:54;21.25;;;12.07;;
30617;SDS011;17384;51.214;9.202;2023-04-15T09:35:21;23.08;;;11.52;;
30617;SDS011;17384;51.214;9.202;2023-04-15T09:37:48;18.95;;;11.68;;
30617;SDS011;17384;51.214;9.202;2023-04-15T09:40:29;19.63;;;11.60;;
30617;SDS011;17384;51.214;9.202;2023-04-15T09:43:08;20.27;;;11.98;;
30617;SDS011;17384;51.214;9.202;2023-04-15T09:45:36;18.52;;;10.55;;
30617;SDS011;17384;51.214;9.202;2023-04-15T09:48:21;18.33;;;11.13;;
30617;SDS011;17384;51.214;9.202;2023-04-15T09:50:51;17.02;;;11.75;;
30617;SDS011;17384;51.214;9.202;2023-04-15T09:53:21;17.77;;;10.50;;
30617;SDS011;17384;51.214;9.202;2023-04-15T09:55:49;18.20;;;11.15;;
30617;SDS011;17384;51.214;9.202;2023-04-15T10:00:48;17.65;;;11.40;;
30617;SDS011;17384;51.214;9.202;2023-04-15T10:03:17;15.15;;;9.85;;
30617;SDS011;17384;51.214;9.202;2023-04-15T10:05:48;16.88;;;11.05;;
30617;SDS011;17384;51.214;9.202;2023-04-15T10:08:15;15.52;;;10.60;;
30617;SDS011;17384;51.214;9.202;2023-04-15T10:10:43;18.77;;;11.48;;
30617;SDS011;17384;51.214;9.202;2023-04-15T10:13:09;20.08;;;11.23;;
30617;SDS011;17384;51.214;9.202;2023-04-15T10:15:37;18.60;;;10.63;;
30617;SDS011;17384;51.214;9.202;2023-04-15T10:18:04;17.42;;;10.63;;
30617;SDS011;17384;51.214;9.202;2023-04-15T10:20:32;15.50;;;10.73;;
30617;SDS011;17384;51.214;9.202;2023-04-15T10:22:58;16.42;;;10.82;;
30617;SDS011;17384;51.214;9.202;2023-04-15T10:25:25;17.10;;;10.95;;
30617;SDS011;17384;51.214;9.202;2023-04-15T10:27:51;16.60;;;10.70;;
30617;SDS011;17384;51.214;9.202;2023-04-15T10:30:17;16.80;;;11.07;;
30617;SDS011;17384;51.214;9.202;2023-04-15T10:32:42;18.05;;;11.38;;
30617;SDS011;17384;51.214;9.202;2023-04-15T10:35:09;19.77;;;11.68;;
30617;SDS011;17384;51.214;9.202;2023-04-15T10:37:36;17.52;;;10.70;;
30617;SDS011;17384;51.214;9.202;2023-04-15T10:42:52;17.80;;;11.98;;
30617;SDS011;17384;51.214;9.202;2023-04-15T10:45:24;20.27;;;11.68;;
30617;SDS011;17384;51.214;9.202;2023-04-15T10:47:55;19.13;;;11.70;;
30617;SDS011;17384;51.214;9.202;2023-04-15T10:50:21;19.92;;;12.23;;
30617;SDS011;17384;51.214;9.202;2023-04-15T10:52:49;19.25;;;11.10;;
30617;SDS011;17384;51.214;9.202;2023-04-15T10:55:19;15.98;;;10.50;;
30617;SDS011;17384;51.214;9.202;2023-04-15T10:57:59;16.75;;;10.93;;
30617;SDS011;17384;51.214;9.202;2023-04-15T11:00:29;20.70;;;12.15;;
30617;SDS011;17384;51.214;9.202;2023-04-15T11:02:57;19.17;;;11.57;;
30617;SDS011;17384;51.214;9.202;2023-04-15T11:08:03;18.75;;;11.98;;
30617;SDS011;17384;51.214;9.202;2023-04-15T11:13:01;20.58;;;12.18;;
30617;SDS011;17384;51.214;9.202;2023-04-15T11:15:40;18.10;;;9.90;;
30617;SDS011;17384;51.214;9.202;2023-04-15T11:18:16;15.00;;;9.13;;
30617;SDS011;17384;51.214;9.202;2023-04-15T11:20:43;17.38;;;10.23;;
30617;SDS011;17384;51.214;9.202;2023-04-15T11:23:11;17.52;;;10.07;;
30617;SDS011;17384;51.214;9.202;2023-04-15T11:25:37;15.63;;;9.10;;
30617;SDS011;17384;51.214;9.202;2023-04-15T11:28:02;14.93;;;8.93;;
30617;SDS011;17384;51.214;9.202;2023-04-15T11:30:30;16.65;;;9.02;;
30617;SDS011;17384;51.214;9.202;2023-04-15T11:33:01;16.20;;;9.00;;
30617;SDS011;17384;51.214;9.202;2023-04-15T11:35:28;15.90;;;9.00;;
30617;SDS011;17384;51.214;9.202;2023-04-15T11:37:54;13.55;;;7.88;;
30617;SDS011;17384;51.214;9.202;2023-04-15T11:40:28;13.00;;;7.25;;
30617;SDS011;17384;51.214;9.202;2023-04-15T11:45:29;12.40;;;7.93;;
30617;SDS011;17384;51.214;9.202;2023-04-15T11:48:03;10.70;;;6.28;;
30617;SDS011;17384;51.214;9.202;2023-04-15T11:50:38;10.65;;;6.65;;
30617;SDS011;17384;51.214;9.202;2023-04-15T11:53:08;10.98;;;6.55;;
30617;SDS011;17384;51.214;9.202;2023-04-15T11:55:42;10.65;;;6.25;;
30617;SDS011;17384;51.214;9.202;2023-04-15T12:14:02;7.95;;;4.97;;
30617;SDS011;17384;51.214;9.202;2023-04-15T12:16:30;8.30;;;5.53;;
30617;SDS011;17384;51.214;9.202;2023-04-15T12:18:58;7.45;;;5.05;;
30617;SDS011;17384;51.214;9.202;2023-04-15T12:21:32;7.72;;;4.93;;
30617;SDS011;17384;51.214;9.202;2023-04-15T12:24:03;6.50;;;4.75;;
30617;SDS011;17384;51.214;9.202;2023-04-15T12:26:35;7.28;;;4.28;;
30617;SDS011;17384;51.214;9.202;2023-04-15T12:29:12;7.03;;;4.28;;
30617;SDS011;17384;51.214;9.202;2023-04-15T12:31:50;6.97;;;4.78;;
30617;SDS011;17384;51.214;9.202;2023-04-15T12:34:18;6.35;;;4.90;;
30617;SDS011;17384;51.214;9.202;2023-04-15T12:36:57;5.38;;;4.10;;
30617;SDS011;17384;51.214;9.202;2023-04-15T12:39:25;6.03;;;4.00;;
30617;SDS011;17384;51.214;9.202;2023-04-15T12:41:52;5.00;;;4.05;;
30617;SDS011;17384;51.214;9.202;2023-04-15T12:44:18;5.40;;;3.92;;
30617;SDS011;17384;51.214;9.202;2023-04-15T12:46:45;5.50;;;3.70;;
30617;SDS011;17384;51.214;9.202;2023-04-15T12:49:10;5.38;;;3.60;;
30617;SDS011;17384;51.214;9.202;2023-04-15T12:51:38;6.00;;;4.10;;
30617;SDS011;17384;51.214;9.202;2023-04-15T12:54:04;5.55;;;3.67;;
30617;SDS011;17384;51.214;9.202;2023-04-15T12:56:29;5.90;;;3.85;;
30617;SDS011;17384;51.214;9.202;2023-04-15T12:58:55;5.43;;;4.10;;
30617;SDS011;17384;51.214;9.202;2023-04-15T13:01:20;6.13;;;3.95;;
30617;SDS011;17384;51.214;9.202;2023-04-15T13:03:45;4.75;;;3.97;;
30617;SDS011;17384;51.214;9.202;2023-04-15T13:06:12;8.13;;;5.20;;
30617;SDS011;17384;51.214;9.202;2023-04-15T13:08:38;5.40;;;3.75;;
30617;SDS011;17384;51.214;9.202;2023-04-15T13:11:03;6.00;;;4.13;;
30617;SDS011;17384;51.214;9.202;2023-04-15T13:13:29;5.75;;;4.45;;
30617;SDS011;17384;51.214;9.202;2023-04-15T13:15:56;5.38;;;4.05;;
30617;SDS011;17384;51.214;9.202;2023-04-15T13:18:22;5.60;;;4.35;;
30617;SDS011;17384;51.214;9.202;2023-04-15T13:20:48;6.05;;;4.13;;
30617;SDS011;17384;51.214;9.202;2023-04-15T13:23:14;6.65;;;3.97;;
30617;SDS011;17384;51.214;9.202;2023-04-15T13:25:39;5.32;;;3.72;;
30617;SDS011;17384;51.214;9.202;2023-04-15T13:28:05;5.88;;;4.28;;
30617;SDS011;17384;51.214;9.202;2023-04-15T13:30:30;5.85;;;3.97;;
30617;SDS011;17384;51.214;9.202;2023-04-15T13:32:56;5.47;;;4.15;;
30617;SDS011;17384;51.214;9.202;2023-04-15T13:35:22;5.88;;;4.20;;
30617;SDS011;17384;51.214;9.202;2023-04-15T13:37:47;5.85;;;4.22;;
30617;SDS011;17384;51.214;9.202;2023-04-15T13:40:12;6.05;;;4.43;;
30617;SDS011;17384;51.214;9.202;2023-04-15T13:42:38;4.57;;;3.90;;
30617;SDS011;17384;51.214;9.202;2023-04-15T13:45:04;5.78;;;3.90;;
30617;SDS011;17384;51.214;9.202;2023-04-15T13:47:30;8.18;;;4.93;;
30617;SDS011;17384;51.214;9.202;2023-04-15T13:49:56;4.55;;;3.70;;
30617;SDS011;17384;51.214;9.202;2023-04-15T13:52:22;5.50;;;3.88;;
30617;SDS011;17384;51.214;9.202;2023-04-15T13:54:48;5.00;;;3.92;;
30617;SDS011;17384;51.214;9.202;2023-04-15T13:57:14;6.00;;;4.22;;
30617;SDS011;17384;51.214;9.202;2023-04-15T13:59:40;10.20;;;4.70;;
30617;SDS011;17384;51.214;9.202;2023-04-15T14:02:06;6.82;;;4.63;;
30617;SDS011;17384;51.214;9.202;2023-04-15T14:04:31;6.28;;;3.80;;
30617;SDS011;17384;51.214;9.202;2023-04-15T14:06:57;4.55;;;3.70;;
30617;SDS011;17384;51.214;9.202;2023-04-15T14:09:23;5.53;;;4.50;;
30617;SDS011;17384;51.214;9.202;2023-04-15T14:11:49;16.88;;;11.32;;
30617;SDS011;17384;51.214;9.202;2023-04-15T14:14:15;17.08;;;12.90;;
30617;SDS011;17384;51.214;9.202;2023-04-15T14:16:41;10.07;;;8.00;;
30617;SDS011;17384;51.214;9.202;2023-04-15T14:19:07;7.32;;;5.85;;
30617;SDS011;17384;51.214;9.202;2023-04-15T14:21:33;6.78;;;5.22;;
30617;SDS011;17384;51.214;9.202;2023-04-15T14:23:58;6.38;;;4.38;;
30617;SDS011;17384;51.214;9.202;2023-04-15T14:26:25;8.45;;;5.80;;
30617;SDS011;17384;51.214;9.202;2023-04-15T14:28:50;9.07;;;6.20;;
30617;SDS011;17384;51.214;9.202;2023-04-15T14:31:16;7.47;;;5.35;;
30617;SDS011;17384;51.214;9.202;2023-04-15T14:33:43;6.93;;;5.20;;
30617;SDS011;17384;51.214;9.202;2023-04-15T14:36:09;6.68;;;5.18;;
30617;SDS011;17384;51.214;9.202;2023-04-15T14:38:35;5.80;;;5.20;;
30617;SDS011;17384;51.214;9.202;2023-04-15T14:41:03;7.38;;;5.65;;
30617;SDS011;17384;51.214;9.202;2023-04-15T14:43:29;10.43;;;5.75;;
30617;SDS011;17384;51.214;9.202;2023-04-15T14:45:54;8.65;;;6.13;;
30617;SDS011;17384;51.214;9.202;2023-04-15T14:48:19;3.78;;;3.20;;
30617;SDS011;17384;51.214;9.202;2023-04-15T14:50:45;5.97;;;4.72;;
30617;SDS011;17384;51.214;9.202;2023-04-15T14:53:11;7.30;;;6.13;;